sensor_id;sensor_type;location;lat;lon;timestamp;pressure;altitude;pressure_sealevel;temperature;humidity
52319;BME280;38258;51.148;14.068;2023-02-13T00:00:20;100394.31;;;2.01;100.00
52319;BME280;38258;51.148;14.068;2023-02-13T00:02:48;100404.00;;;2.06;100.00
52319;BME280;38258;51.148;14.068;2023-02-13T00:05:16;100396.59;;;2.16;100.00
52319;BME280;38258;51.148;14.068;2023-02-13T00:07:43;100399.41;;;2.22;100.00
52319;BME280;38258;51.148;14.068;2023-02-13T00:10:11;100390.94;;;2.26;100.00
52319;BME280;38258;51.148;14.068;2023-02-13T00:12:38;100388.44;;;2.28;100.00
52319;BME280;38258;51.148;14.068;2023-02-13T00:15:05;100382.91;;;2.18;100.00
52319;BME280;38258;51.148;14.068;2023-02-13T00:17:33;100381.97;;;2.16;100.00
52319;BME280;38258;51.148;14.068;2023-02-13T00:20:00;100378.75;;;2.22;100.00
52319;BME280;38258;51.148;14.068;2023-02-13T00:22:28;100382.91;;;2.18;100.00
52319;BME280;38258;51.148;14.068;2023-02-13T00:24:55;100381.69;;;2.31;100.00
52319;BME280;38258;51.148;14.068;2023-02-13T00:27:22;100374.53;;;2.48;100.00
52319;BME280;38258;51.148;14.068;2023-02-13T00:29:51;100386.50;;;2.45;100.00
52319;BME280;38258;51.148;14.068;2023-02-13T00:32:18;100382.28;;;2.48;100.00
52319;BME280;38258;51.148;14.068;2023-02-13T00:34:45;100377.53;;;2.59;100.00
52319;BME280;38258;51.148;14.068;2023-02-13T00:37:12;100374.16;;;2.62;100.00
52319;BME280;38258;51.148;14.068;2023-02-13T00:39:40;100377.69;;;2.64;100.00
52319;BME280;38258;51.148;14.068;2023-02-13T00:42:09;100370.75;;;2.63;100.00
52319;BME280;38258;51.148;14.068;2023-02-13T00:44:35;100375.22;;;2.67;100.00
52319;BME280;38258;51.148;14.068;2023-02-13T00:47:02;100373.31;;;2.61;100.00
52319;BME280;38258;51.148;14.068;2023-02-13T00:49:29;100371.66;;;2.63;100.00
52319;BME280;38258;51.148;14.068;2023-02-13T00:51:56;100365.75;;;2.67;100.00
52319;BME280;38258;51.148;14.068;2023-02-13T00:54:23;100371.84;;;2.69;100.00
52319;BME280;38258;51.148;14.068;2023-02-13T00:56:51;100370.34;;;2.75;100.00
52319;BME280;38258;51.148;14.068;2023-02-13T00:59:18;100367.56;;;2.70;100.00
52319;BME280;38258;51.148;14.068;2023-02-13T01:01:44;100368.41;;;2.69;100.00
52319;BME280;38258;51.148;14.068;2023-02-13T01:06:56;100365.38;;;2.81;100.00
52319;BME280;38258;51.148;14.068;2023-02-13T01:09:23;100363.50;;;2.77;100.00
52319;BME280;38258;51.148;14.068;2023-02-13T01:11:51;100374.50;;;2.71;100.00
52319;BME280;38258;51.148;14.068;2023-02-13T01:14:18;100370.38;;;2.76;100.00
52319;BME280;38258;51.148;14.068;2023-02-13T01:16:46;100373.38;;;2.89;100.00
52319;BME280;38258;51.148;14.068;2023-02-13T01:19:13;100371.47;;;2.83;100.00
52319;BME280;38258;51.148;14.068;2023-02-13T01:21:41;100361.69;;;2.74;100.00
52319;BME280;38258;51.148;14.068;2023-02-13T01:24:08;100375.16;;;2.90;100.00
52319;BME280;38258;51.148;14.068;2023-02-13T01:26:35;100362.78;;;2.81;100.00
52319;BME280;38258;51.148;14.068;2023-02-13T01:29:03;100373.03;;;2.78;100.00
52319;BME280;38258;51.148;14.068;2023-02-13T01:31:31;100372.28;;;2.82;100.00
52319;BME280;38258;51.148;14.068;2023-02-13T01:33:58;100362.59;;;2.75;100.00
52319;BME280;38258;51.148;14.068;2023-02-13T01:36:25;100366.13;;;2.78;100.00
52319;BME280;38258;51.148;14.068;2023-02-13T01:38:54;100355.69;;;2.75;100.00
52319;BME280;38258;51.148;14.068;2023-02-13T01:41:23;100363.34;;;2.72;100.00
52319;BME280;38258;51.148;14.068;2023-02-13T01:43:52;100337.63;;;2.51;100.00
52319;BME280;38258;51.148;14.068;2023-02-13T01:46:27;100357.19;;;2.68;100.00
52319;BME280;38258;51.148;14.068;2023-02-13T01:48:58;100335.09;;;2.52;100.00
52319;BME280;38258;51.148;14.068;2023-02-13T01:51:30;100360.97;;;2.78;100.00
52319;BME280;38258;51.148;14.068;2023-02-13T01:54:03;100355.78;;;2.78;100.00
52319;BME280;38258;51.148;14.068;2023-02-13T01:56:34;100354.94;;;2.78;100.00
52319;BME280;38258;51.148;14.068;2023-02-13T01:59:07;100341.75;;;2.70;100.00
52319;BME280;38258;51.148;14.068;2023-02-13T02:01:36;100353.84;;;2.71;100.00
52319;BME280;38258;51.148;14.068;2023-02-13T02:04:08;100357.44;;;2.76;100.00
52319;BME280;38258;51.148;14.068;2023-02-13T02:06:40;100353.38;;;2.83;100.00
52319;BME280;38258;51.148;14.068;2023-02-13T02:09:11;100346.81;;;2.67;100.00
52319;BME280;38258;51.148;14.068;2023-02-13T02:11:43;100345.25;;;2.72;100.00
52319;BME280;38258;51.148;14.068;2023-02-13T02:14:13;100345.91;;;2.66;100.00
52319;BME280;38258;51.148;14.068;2023-02-13T02:16:42;100341.63;;;2.67;100.00
52319;BME280;38258;51.148;14.068;2023-02-13T02:19:15;100338.09;;;2.65;100.00
52319;BME280;38258;51.148;14.068;2023-02-13T02:22:01;100326.34;;;2.49;100.00
52319;BME280;38258;51.148;14.068;2023-02-13T02:31:08;100340.22;;;3.01;100.00
52319;BME280;38258;51.148;14.068;2023-02-13T02:33:51;100316.53;;;2.89;100.00
52319;BME280;38258;51.148;14.068;2023-02-13T02:36:34;100344.03;;;3.13;100.00
52319;BME280;38258;51.148;14.068;2023-02-13T02:39:14;100343.81;;;3.06;100.00
52319;BME280;38258;51.148;14.068;2023-02-13T02:41:55;100344.56;;;3.30;100.00
52319;BME280;38258;51.148;14.068;2023-02-13T02:44:31;100338.22;;;3.20;100.00
52319;BME280;38258;51.148;14.068;2023-02-13T02:47:16;100344.97;;;3.15;100.00
52319;BME280;38258;51.148;14.068;2023-02-13T02:50:31;100341.88;;;3.25;100.00
52319;BME280;38258;51.148;14.068;2023-02-13T02:53:16;100344.38;;;3.23;100.00
52319;BME280;38258;51.148;14.068;2023-02-13T02:55:50;100341.13;;;3.29;100.00
52319;BME280;38258;51.148;14.068;2023-02-13T02:58:22;100343.72;;;3.29;100.00
52319;BME280;38258;51.148;14.068;2023-02-13T03:01:12;100350.78;;;3.35;100.00
52319;BME280;38258;51.148;14.068;2023-02-13T03:03:59;100348.16;;;3.33;100.00
52319;BME280;38258;51.148;14.068;2023-02-13T03:06:48;100347.31;;;3.34;100.00
52319;BME280;38258;51.148;14.068;2023-02-13T03:09:19;100345.78;;;3.39;100.00
52319;BME280;38258;51.148;14.068;2023-02-13T03:12:11;100346.63;;;3.40;100.00
52319;BME280;38258;51.148;14.068;2023-02-13T03:14:57;100342.50;;;3.45;100.00
52319;BME280;38258;51.148;14.068;2023-02-13T03:17:24;100347.63;;;3.44;100.00
52319;BME280;38258;51.148;14.068;2023-02-13T03:20:13;100349.44;;;3.46;100.00
52319;BME280;38258;51.148;14.068;2023-02-13T03:23:11;100345.28;;;3.51;100.00
52319;BME280;38258;51.148;14.068;2023-02-13T03:28:40;100340.03;;;3.50;100.00
52319;BME280;38258;51.148;14.068;2023-02-13T03:31:30;100350.41;;;3.50;100.00
52319;BME280;38258;51.148;14.068;2023-02-13T03:34:02;100344.34;;;3.49;100.00
52319;BME280;38258;51.148;14.068;2023-02-13T03:36:36;100347.53;;;3.41;100.00
52319;BME280;38258;51.148;14.068;2023-02-13T03:39:34;100353.22;;;3.58;100.00
52319;BME280;38258;51.148;14.068;2023-02-13T03:42:07;100323.19;;;3.35;100.00
52319;BME280;38258;51.148;14.068;2023-02-13T03:44:39;100355.53;;;3.48;100.00
52319;BME280;38258;51.148;14.068;2023-02-13T03:47:08;100345.13;;;3.47;100.00
52319;BME280;38258;51.148;14.068;2023-02-13T03:49:39;100353.09;;;3.53;100.00
52319;BME280;38258;51.148;14.068;2023-02-13T03:52:29;100353.88;;;3.50;100.00
52319;BME280;38258;51.148;14.068;2023-02-13T03:55:01;100353.09;;;3.53;100.00
52319;BME280;38258;51.148;14.068;2023-02-13T03:57:51;100355.56;;;3.50;100.00
52319;BME280;38258;51.148;14.068;2023-02-13T04:00:40;100354.94;;;3.57;100.00
52319;BME280;38258;51.148;14.068;2023-02-13T04:03:12;100355.56;;;3.50;100.00
52319;BME280;38258;51.148;14.068;2023-02-13T04:05:43;100360.91;;;3.54;100.00
52319;BME280;38258;51.148;14.068;2023-02-13T04:08:12;100358.22;;;3.51;100.00
52319;BME280;38258;51.148;14.068;2023-02-13T04:10:45;100348.69;;;3.50;100.00
52319;BME280;38258;51.148;14.068;2023-02-13T04:13:18;100343.69;;;3.55;100.00
52319;BME280;38258;51.148;14.068;2023-02-13T04:15:50;100338.34;;;3.50;100.00
52319;BME280;38258;51.148;14.068;2023-02-13T04:18:22;100317.09;;;3.33;100.00
52319;BME280;38258;51.148;14.068;2023-02-13T04:20:50;100351.63;;;3.61;100.00
52319;BME280;38258;51.148;14.068;2023-02-13T04:23:18;100341.88;;;3.52;100.00
52319;BME280;38258;51.148;14.068;2023-02-13T04:25:48;100346.28;;;3.57;100.00
52319;BME280;38258;51.148;14.068;2023-02-13T04:28:15;100328.75;;;3.46;100.00
52319;BME280;38258;51.148;14.068;2023-02-13T04:30:44;100341.69;;;3.46;100.00
52319;BME280;38258;51.148;14.068;2023-02-13T04:33:10;100334.50;;;3.37;100.00
52319;BME280;38258;51.148;14.068;2023-02-13T04:35:37;100338.41;;;3.52;100.00
52319;BME280;38258;51.148;14.068;2023-02-13T04:38:04;100344.25;;;3.46;100.00
52319;BME280;38258;51.148;14.068;2023-02-13T04:40:31;100341.09;;;3.55;100.00
52319;BME280;38258;51.148;14.068;2023-02-13T04:42:59;100346.06;;;3.49;100.00
52319;BME280;38258;51.148;14.068;2023-02-13T04:45:26;100341.91;;;3.54;100.00
52319;BME280;38258;51.148;14.068;2023-02-13T04:47:54;100348.78;;;3.53;100.00
52319;BME280;38258;51.148;14.068;2023-02-13T04:50:22;100340.09;;;3.51;100.00
52319;BME280;38258;51.148;14.068;2023-02-13T04:52:51;100337.22;;;3.42;100.00
52319;BME280;38258;51.148;14.068;2023-02-13T04:55:19;100344.44;;;3.52;100.00
52319;BME280;38258;51.148;14.068;2023-02-13T04:57:45;100348.59;;;3.47;100.00
52319;BME280;38258;51.148;14.068;2023-02-13T05:00:15;100341.19;;;3.58;100.00
52319;BME280;38258;51.148;14.068;2023-02-13T05:02:42;100326.84;;;3.41;100.00
52319;BME280;38258;51.148;14.068;2023-02-13T05:05:08;100344.34;;;3.49;100.00
52319;BME280;38258;51.148;14.068;2023-02-13T05:07:35;100342.94;;;3.59;100.00
52319;BME280;38258;51.148;14.068;2023-02-13T05:10:02;100343.69;;;3.55;100.00
52319;BME280;38258;51.148;14.068;2023-02-13T05:12:29;100338.13;;;3.44;100.00
52319;BME280;38258;51.148;14.068;2023-02-13T05:14:56;100342.75;;;3.53;100.00
52319;BME280;38258;51.148;14.068;2023-02-13T05:17:24;100346.34;;;3.58;100.00
52319;BME280;38258;51.148;14.068;2023-02-13T05:19:51;100342.94;;;3.59;100.00
52319;BME280;38258;51.148;14.068;2023-02-13T05:22:18;100347.03;;;3.52;100.00
52319;BME280;38258;51.148;14.068;2023-02-13T05:25:02;100344.44;;;3.52;100.00
52319;BME280;38258;51.148;14.068;2023-02-13T05:27:29;100352.44;;;3.59;100.00
52319;BME280;38258;51.148;14.068;2023-02-13T05:29:56;100343.38;;;3.46;100.00
52319;BME280;38258;51.148;14.068;2023-02-13T05:32:22;100348.63;;;3.49;100.00
52319;BME280;38258;51.148;14.068;2023-02-13T05:34:50;100347.09;;;3.54;100.00
52319;BME280;38258;51.148;14.068;2023-02-13T05:37:17;100340.19;;;3.54;100.00
52319;BME280;38258;51.148;14.068;2023-02-13T05:39:43;100343.44;;;3.47;100.00
52319;BME280;38258;51.148;14.068;2023-02-13T05:42:10;100337.38;;;3.47;100.00
52319;BME280;38258;51.148;14.068;2023-02-13T05:44:37;100340.88;;;3.49;100.00
52319;BME280;38258;51.148;14.068;2023-02-13T05:47:04;100325.09;;;3.39;100.00
52319;BME280;38258;51.148;14.068;2023-02-13T05:49:31;100346.47;;;3.35;100.00
52319;BME280;38258;51.148;14.068;2023-02-13T05:51:59;100328.25;;;3.31;100.00
52319;BME280;38258;51.148;14.068;2023-02-13T05:54:26;100335.44;;;3.39;100.00
52319;BME280;38258;51.148;14.068;2023-02-13T05:56:53;100335.69;;;3.49;100.00
52319;BME280;38258;51.148;14.068;2023-02-13T05:59:20;100342.44;;;3.44;100.00
52319;BME280;38258;51.148;14.068;2023-02-13T06:01:47;100345.72;;;3.38;100.00
52319;BME280;38258;51.148;14.068;2023-02-13T06:04:14;100343.31;;;3.44;100.00
52319;BME280;38258;51.148;14.068;2023-02-13T06:06:41;100356.97;;;3.40;100.00
52319;BME280;38258;51.148;14.068;2023-02-13T06:09:11;100348.97;;;3.32;100.00
52319;BME280;38258;51.148;14.068;2023-02-13T06:11:37;100358.91;;;3.46;100.00
52319;BME280;38258;51.148;14.068;2023-02-13T06:14:04;100355.13;;;3.36;100.00
52319;BME280;38258;51.148;14.068;2023-02-13T06:16:31;100355.03;;;3.33;100.00
52319;BME280;38258;51.148;14.068;2023-02-13T06:18:59;100360.91;;;3.29;100.00
52319;BME280;38258;51.148;14.068;2023-02-13T06:21:27;100359.47;;;3.37;100.00
52319;BME280;38258;51.148;14.068;2023-02-13T06:23:54;100365.53;;;3.37;100.00
52319;BME280;38258;51.148;14.068;2023-02-13T06:26:22;100368.16;;;3.39;100.00
52319;BME280;38258;51.148;14.068;2023-02-13T06:28:49;100364.50;;;3.32;100.00
52319;BME280;38258;51.148;14.068;2023-02-13T06:31:15;100365.16;;;3.27;100.00
52319;BME280;38258;51.148;14.068;2023-02-13T06:33:42;100370.56;;;3.33;100.00
52319;BME280;38258;51.148;14.068;2023-02-13T06:36:09;100369.47;;;3.26;100.00
52319;BME280;38258;51.148;14.068;2023-02-13T06:38:37;100360.81;;;3.25;100.00
52319;BME280;38258;51.148;14.068;2023-02-13T06:41:04;100364.59;;;3.35;100.00
52319;BME280;38258;51.148;14.068;2023-02-13T06:43:32;100362.97;;;3.37;100.00
52319;BME280;38258;51.148;14.068;2023-02-13T06:46:03;100374.31;;;3.43;100.00
52319;BME280;38258;51.148;14.068;2023-02-13T06:48:30;100375.06;;;3.38;100.00
52319;BME280;38258;51.148;14.068;2023-02-13T06:50:57;100373.09;;;3.31;100.00
52319;BME280;38258;51.148;14.068;2023-02-13T06:53:26;100380.09;;;3.34;100.00
52319;BME280;38258;51.148;14.068;2023-02-13T06:55:53;100391.50;;;3.41;100.00
52319;BME280;38258;51.148;14.068;2023-02-13T06:58:21;100369.47;;;3.26;100.00
52319;BME280;38258;51.148;14.068;2023-02-13T07:00:51;100394.19;;;3.44;100.00
52319;BME280;38258;51.148;14.068;2023-02-13T07:03:18;100405.06;;;3.33;100.00
52319;BME280;38258;51.148;14.068;2023-02-13T07:05:44;100370.91;;;3.18;100.00
52319;BME280;38258;51.148;14.068;2023-02-13T07:08:12;100270.88;;;2.63;100.00
52319;BME280;38258;51.148;14.068;2023-02-13T07:10:39;100396.44;;;3.33;100.00
52319;BME280;38258;51.148;14.068;2023-02-13T07:13:07;100253.94;;;2.46;100.00
52319;BME280;38258;51.148;14.068;2023-02-13T07:15:35;100280.44;;;2.66;100.00
52319;BME280;38258;51.148;14.068;2023-02-13T07:18:04;100228.53;;;2.34;100.00
52319;BME280;38258;51.148;14.068;2023-02-13T07:20:32;100274.22;;;2.61;100.00
52319;BME280;38258;51.148;14.068;2023-02-13T07:22:59;100243.47;;;2.43;100.00
52319;BME280;38258;51.148;14.068;2023-02-13T07:25:26;100278.81;;;2.69;100.00
52319;BME280;38258;51.148;14.068;2023-02-13T07:27:53;100314.75;;;2.88;100.00
52319;BME280;38258;51.148;14.068;2023-02-13T07:30:20;100279.56;;;2.65;100.00
52319;BME280;38258;51.148;14.068;2023-02-13T07:32:46;100290.56;;;2.60;100.00
52319;BME280;38258;51.148;14.068;2023-02-13T07:35:15;100244.94;;;2.34;100.00
52319;BME280;38258;51.148;14.068;2023-02-13T07:37:42;100379.59;;;3.20;100.00
52319;BME280;38258;51.148;14.068;2023-02-13T07:40:09;100324.28;;;2.89;100.00
52319;BME280;38258;51.148;14.068;2023-02-13T07:42:36;100300.13;;;2.62;100.00
52319;BME280;38258;51.148;14.068;2023-02-13T07:45:03;100328.00;;;2.97;100.00
52319;BME280;38258;51.148;14.068;2023-02-13T07:47:32;100343.72;;;3.03;100.00
52319;BME280;38258;51.148;14.068;2023-02-13T07:49:59;100295.16;;;2.68;100.00
52319;BME280;38258;51.148;14.068;2023-02-13T07:52:27;100266.63;;;2.39;100.00
52319;BME280;38258;51.148;14.068;2023-02-13T07:54:59;100302.97;;;2.70;100.00
52319;BME280;38258;51.148;14.068;2023-02-13T07:57:25;100290.50;;;2.58;100.00
52319;BME280;38258;51.148;14.068;2023-02-13T07:59:52;100311.50;;;2.67;100.00
52319;BME280;38258;51.148;14.068;2023-02-13T08:02:19;100292.53;;;2.67;100.00
52319;BME280;38258;51.148;14.068;2023-02-13T08:04:46;100295.31;;;2.73;100.00
52319;BME280;38258;51.148;14.068;2023-02-13T08:07:14;100360.00;;;3.01;100.00
52319;BME280;38258;51.148;14.068;2023-02-13T08:09:44;100345.22;;;2.96;100.00
52319;BME280;38258;51.148;14.068;2023-02-13T08:12:29;100256.25;;;2.38;100.00
52319;BME280;38258;51.148;14.068;2023-02-13T08:14:56;100298.66;;;2.71;100.00
52319;BME280;38258;51.148;14.068;2023-02-13T08:17:22;100226.13;;;2.38;100.00
52319;BME280;38258;51.148;14.068;2023-02-13T08:19:49;100218.22;;;2.34;100.00
52319;BME280;38258;51.148;14.068;2023-02-13T08:22:16;100285.88;;;2.74;100.00
52319;BME280;38258;51.148;14.068;2023-02-13T08:24:45;100420.06;;;3.44;100.00
52319;BME280;38258;51.148;14.068;2023-02-13T08:27:14;100254.13;;;2.52;100.00
52319;BME280;38258;51.148;14.068;2023-02-13T08:29:41;100269.06;;;2.61;100.00
52319;BME280;38258;51.148;14.068;2023-02-13T08:32:08;100366.38;;;3.10;100.00
52319;BME280;38258;51.148;14.068;2023-02-13T08:34:34;100319.09;;;2.89;100.00
52319;BME280;38258;51.148;14.068;2023-02-13T08:37:02;100316.16;;;2.78;100.00
52319;BME280;38258;51.148;14.068;2023-02-13T08:39:29;100328.31;;;3.06;100.00
52319;BME280;38258;51.148;14.068;2023-02-13T08:41:57;100211.34;;;2.34;100.00
52319;BME280;38258;51.148;14.068;2023-02-13T08:44:24;100262.41;;;2.67;100.00
52319;BME280;38258;51.148;14.068;2023-02-13T08:46:50;100421.09;;;3.49;100.00
52319;BME280;38258;51.148;14.068;2023-02-13T08:49:17;100354.53;;;3.17;100.00
52319;BME280;38258;51.148;14.068;2023-02-13T08:51:44;100407.72;;;3.36;100.00
52319;BME280;38258;51.148;14.068;2023-02-13T08:54:11;100213.94;;;2.34;100.00
52319;BME280;38258;51.148;14.068;2023-02-13T08:56:38;100319.34;;;2.95;100.00
52319;BME280;38258;51.148;14.068;2023-02-13T08:59:06;100429.06;;;3.55;100.00
52319;BME280;38258;51.148;14.068;2023-02-13T09:01:33;100419.88;;;3.37;100.00
52319;BME280;38258;51.148;14.068;2023-02-13T09:04:00;100323.78;;;2.99;100.00
52319;BME280;38258;51.148;14.068;2023-02-13T09:06:27;100406.47;;;3.23;100.00
52319;BME280;38258;51.148;14.068;2023-02-13T09:08:54;100270.19;;;2.43;100.00
52319;BME280;38258;51.148;14.068;2023-02-13T09:11:21;100319.00;;;2.86;100.00
52319;BME280;38258;51.148;14.068;2023-02-13T09:13:48;100445.28;;;3.51;100.00
52319;BME280;38258;51.148;14.068;2023-02-13T09:16:16;100414.88;;;3.44;100.00
52319;BME280;38258;51.148;14.068;2023-02-13T09:18:45;100365.56;;;3.11;100.00
52319;BME280;38258;51.148;14.068;2023-02-13T09:21:13;100263.53;;;2.50;100.00
52319;BME280;38258;51.148;14.068;2023-02-13T09:23:40;100322.91;;;2.74;100.00
52319;BME280;38258;51.148;14.068;2023-02-13T09:26:09;100316.31;;;2.82;100.00
52319;BME280;38258;51.148;14.068;2023-02-13T09:28:36;100383.25;;;3.25;100.00
52319;BME280;38258;51.148;14.068;2023-02-13T09:31:04;100331.19;;;2.90;100.00
52319;BME280;38258;51.148;14.068;2023-02-13T09:33:32;100361.47;;;3.18;100.00
52319;BME280;38258;51.148;14.068;2023-02-13T09:36:03;100230.63;;;2.44;100.00
52319;BME280;38258;51.148;14.068;2023-02-13T09:38:30;100393.59;;;3.25;100.00
52319;BME280;38258;51.148;14.068;2023-02-13T09:40:59;100404.13;;;3.31;100.00
52319;BME280;38258;51.148;14.068;2023-02-13T09:43:30;100381.50;;;3.25;100.00
52319;BME280;38258;51.148;14.068;2023-02-13T09:46:00;100248.19;;;2.54;100.00
52319;BME280;38258;51.148;14.068;2023-02-13T09:48:33;100249.97;;;2.56;100.00
52319;BME280;38258;51.148;14.068;2023-02-13T09:51:03;100455.44;;;3.71;100.00
52319;BME280;38258;51.148;14.068;2023-02-13T09:53:30;100426.81;;;3.38;100.00
52319;BME280;38258;51.148;14.068;2023-02-13T09:56:04;100250.53;;;2.47;100.00
52319;BME280;38258;51.148;14.068;2023-02-13T09:58:41;100415.13;;;3.25;100.00
52319;BME280;38258;51.148;14.068;2023-02-13T10:01:17;100461.38;;;3.66;100.00
52319;BME280;38258;51.148;14.068;2023-02-13T10:03:50;100457.44;;;3.52;100.00
52319;BME280;38258;51.148;14.068;2023-02-13T10:06:24;100474.09;;;3.60;100.00
52319;BME280;38258;51.148;14.068;2023-02-13T10:09:04;100473.56;;;3.71;100.00
52319;BME280;38258;51.148;14.068;2023-02-13T10:14:37;100389.28;;;3.25;100.00
52319;BME280;38258;51.148;14.068;2023-02-13T10:17:08;100437.69;;;3.56;100.00
52319;BME280;38258;51.148;14.068;2023-02-13T10:19:40;100314.97;;;2.94;100.00
52319;BME280;38258;51.148;14.068;2023-02-13T10:22:11;100310.59;;;2.91;100.00
52319;BME280;38258;51.148;14.068;2023-02-13T10:24:42;100251.75;;;2.58;100.00
52319;BME280;38258;51.148;14.068;2023-02-13T10:27:20;100291.81;;;2.71;100.00
52319;BME280;38258;51.148;14.068;2023-02-13T10:29:52;100379.75;;;3.50;100.00
52319;BME280;38258;51.148;14.068;2023-02-13T10:32:48;100280.25;;;2.86;100.00
52319;BME280;38258;51.148;14.068;2023-02-13T10:35:25;100317.53;;;3.20;100.00
52319;BME280;38258;51.148;14.068;2023-02-13T10:37:55;100301.25;;;3.22;100.00
52319;BME280;38258;51.148;14.068;2023-02-13T10:40:29;100278.59;;;3.43;100.00
52319;BME280;38258;51.148;14.068;2023-02-13T10:43:05;100256.31;;;3.19;100.00
52319;BME280;38258;51.148;14.068;2023-02-13T10:45:53;100223.56;;;3.19;100.00
52319;BME280;38258;51.148;14.068;2023-02-13T10:48:36;100321.63;;;3.95;100.00
52319;BME280;38258;51.148;14.068;2023-02-13T10:51:10;100363.13;;;4.29;100.00
52319;BME280;38258;51.148;14.068;2023-02-13T10:53:53;100336.38;;;4.29;100.00
52319;BME280;38258;51.148;14.068;2023-02-13T10:56:26;100338.03;;;4.27;100.00
52319;BME280;38258;51.148;14.068;2023-02-13T10:59:05;100322.84;;;4.08;100.00
52319;BME280;38258;51.148;14.068;2023-02-13T11:01:37;100305.00;;;3.89;100.00
52319;BME280;38258;51.148;14.068;2023-02-13T11:04:09;100368.78;;;4.45;100.00
52319;BME280;38258;51.148;14.068;2023-02-13T11:06:41;100315.94;;;4.39;100.00
52319;BME280;38258;51.148;14.068;2023-02-13T11:09:09;100378.81;;;4.64;100.00
52319;BME280;38258;51.148;14.068;2023-02-13T11:11:39;100318.78;;;4.49;100.00
52319;BME280;38258;51.148;14.068;2023-02-13T11:14:12;100231.19;;;4.03;100.00
52319;BME280;38258;51.148;14.068;2023-02-13T11:16:43;100408.59;;;5.11;100.00
52319;BME280;38258;51.148;14.068;2023-02-13T11:19:16;100323.69;;;4.70;100.00
52319;BME280;38258;51.148;14.068;2023-02-13T11:21:46;100325.59;;;4.77;100.00
52319;BME280;38258;51.148;14.068;2023-02-13T11:24:18;100234.28;;;3.90;100.00
52319;BME280;38258;51.148;14.068;2023-02-13T11:26:50;100307.16;;;4.34;100.00
52319;BME280;38258;51.148;14.068;2023-02-13T11:29:21;100300.09;;;4.29;100.00
52319;BME280;38258;51.148;14.068;2023-02-13T11:32:02;100207.69;;;3.65;100.00
52319;BME280;38258;51.148;14.068;2023-02-13T11:34:32;100322.09;;;4.43;100.00
52319;BME280;38258;51.148;14.068;2023-02-13T11:37:24;100210.31;;;3.66;100.00
52319;BME280;38258;51.148;14.068;2023-02-13T11:39:52;100360.34;;;4.52;100.00
52319;BME280;38258;51.148;14.068;2023-02-13T11:42:25;100352.78;;;4.29;100.00
52319;BME280;38258;51.148;14.068;2023-02-13T11:44:54;100316.63;;;4.32;100.00
52319;BME280;38258;51.148;14.068;2023-02-13T11:47:33;100270.69;;;3.96;100.00
52319;BME280;38258;51.148;14.068;2023-02-13T11:50:02;100362.22;;;4.58;100.00
52319;BME280;38258;51.148;14.068;2023-02-13T11:52:32;100177.63;;;3.39;100.00
52319;BME280;38258;51.148;14.068;2023-02-13T11:55:04;100292.28;;;3.96;100.00
52319;BME280;38258;51.148;14.068;2023-02-13T11:57:33;100367.81;;;4.41;100.00
52319;BME280;38258;51.148;14.068;2023-02-13T12:00:25;100353.88;;;4.37;100.00
52319;BME280;38258;51.148;14.068;2023-02-13T12:02:52;100374.25;;;4.56;100.00
52319;BME280;38258;51.148;14.068;2023-02-13T12:05:22;100363.53;;;4.43;100.00
52319;BME280;38258;51.148;14.068;2023-02-13T12:07:51;100354.09;;;4.45;100.00
52319;BME280;38258;51.148;14.068;2023-02-13T12:10:21;100382.53;;;4.74;100.00
52319;BME280;38258;51.148;14.068;2023-02-13T12:12:53;100271.19;;;4.13;100.00
52319;BME280;38258;51.148;14.068;2023-02-13T12:15:23;100251.91;;;4.03;100.00
52319;BME280;38258;51.148;14.068;2023-02-13T12:18:01;100240.78;;;3.77;100.00
52319;BME280;38258;51.148;14.068;2023-02-13T12:20:34;100272.59;;;4.02;100.00
52319;BME280;38258;51.148;14.068;2023-02-13T12:23:16;100376.59;;;4.78;100.00
52319;BME280;38258;51.148;14.068;2023-02-13T12:26:05;100298.13;;;4.20;100.00
52319;BME280;38258;51.148;14.068;2023-02-13T12:28:45;100245.81;;;3.71;100.00
52319;BME280;38258;51.148;14.068;2023-02-13T12:31:36;100163.28;;;3.22;100.00
52319;BME280;38258;51.148;14.068;2023-02-13T12:34:29;100371.75;;;4.59;100.00
52319;BME280;38258;51.148;14.068;2023-02-13T12:37:15;100374.41;;;4.60;100.00
52319;BME280;38258;51.148;14.068;2023-02-13T12:39:54;100205.25;;;3.71;100.00
52319;BME280;38258;51.148;14.068;2023-02-13T12:42:34;100295.56;;;4.21;100.00
52319;BME280;38258;51.148;14.068;2023-02-13T12:45:15;100226.78;;;3.70;100.00
52319;BME280;38258;51.148;14.068;2023-02-13T12:48:03;100231.03;;;3.66;100.00
52319;BME280;38258;51.148;14.068;2023-02-13T12:50:54;100205.50;;;3.50;100.00
52319;BME280;38258;51.148;14.068;2023-02-13T12:53:32;100247.16;;;3.88;100.00
52319;BME280;38258;51.148;14.068;2023-02-13T12:56:22;100227.78;;;3.74;100.00
52319;BME280;38258;51.148;14.068;2023-02-13T12:59:08;100173.28;;;3.38;100.00
52319;BME280;38258;51.148;14.068;2023-02-13T13:01:53;100167.16;;;3.36;100.00
52319;BME280;38258;51.148;14.068;2023-02-13T13:04:31;100209.28;;;3.60;100.00
52319;BME280;38258;51.148;14.068;2023-02-13T13:07:22;100145.25;;;3.23;100.00
52319;BME280;38258;51.148;14.068;2023-02-13T13:10:11;100195.50;;;3.61;100.00
52319;BME280;38258;51.148;14.068;2023-02-13T13:12:50;100220.09;;;3.77;100.00
52319;BME280;38258;51.148;14.068;2023-02-13T13:15:29;100139.59;;;3.37;100.00
52319;BME280;38258;51.148;14.068;2023-02-13T13:18:05;100322.28;;;4.51;100.00